createdAt,value
2022-12-01T00:00:45.330Z,0
2022-12-01T00:01:45.753Z,0
2022-12-01T00:02:45.557Z,0
2022-12-01T00:03:45.339Z,0
2022-12-01T00:04:45.376Z,0
2022-12-01T00:05:45.284Z,0
2022-12-01T00:06:48.655Z,0
2022-12-01T00:07:47.532Z,0
2022-12-01T00:08:45.456Z,0
2022-12-01T00:09:45.446Z,0
2022-12-01T00:10:45.717Z,0
2022-12-01T00:11:45.826Z,0
2022-12-01T00:12:45.286Z,0
2022-12-01T00:13:45.277Z,0
2022-12-01T00:14:45.402Z,0
2022-12-01T00:15:45.344Z,0
2022-12-01T00:16:45.805Z,0
2022-12-01T00:17:45.284Z,0
2022-12-01T00:18:45.261Z,0
2022-12-01T00:19:45.652Z,0
2022-12-01T00:20:45.367Z,0
2022-12-01T00:21:45.709Z,0
2022-12-01T00:22:48.300Z,0
2022-12-01T00:23:45.422Z,0
2022-12-01T00:24:45.392Z,0
2022-12-01T00:25:45.718Z,0
2022-12-01T00:26:45.638Z,0
2022-12-01T00:27:45.381Z,0
2022-12-01T00:28:45.291Z,0
2022-12-01T00:29:45.502Z,0
2022-12-01T00:30:45.365Z,0
2022-12-01T00:31:45.826Z,0
2022-12-01T00:32:45.456Z,0
2022-12-01T00:33:48.412Z,0
2022-12-01T00:34:45.370Z,0
2022-12-01T00:35:45.282Z,0
2022-12-01T00:36:45.711Z,0
2022-12-01T00:37:45.365Z,0
2022-12-01T00:38:45.366Z,0
2022-12-01T00:39:45.410Z,0
2022-12-01T00:40:45.716Z,0
2022-12-01T00:41:45.649Z,0
2022-12-01T00:42:45.374Z,0
2022-12-01T00:43:45.288Z,0
2022-12-01T00:44:45.382Z,0
2022-12-01T00:45:45.449Z,0
2022-12-01T00:46:45.760Z,0
2022-12-01T00:47:45.487Z,0
2022-12-01T00:48:45.281Z,0
2022-12-01T00:49:48.738Z,0
2022-12-01T00:50:45.373Z,0
2022-12-01T00:51:45.764Z,0
2022-12-01T00:52:45.436Z,0
2022-12-01T00:53:45.444Z,0
2022-12-01T00:54:45.282Z,0
2022-12-01T00:55:45.637Z,0
2022-12-01T00:56:45.709Z,0
2022-12-01T00:57:45.349Z,0
2022-12-01T00:58:45.413Z,0
2022-12-01T00:59:45.473Z,0
2022-12-01T01:00:48.393Z,0
2022-12-01T01:01:45.792Z,0
2022-12-01T01:02:45.539Z,0
2022-12-01T01:03:45.373Z,0
2022-12-01T01:04:45.260Z,0
2022-12-01T01:05:45.291Z,0
2022-12-01T01:06:45.645Z,0
2022-12-01T01:07:45.527Z,0
2022-12-01T01:08:45.394Z,0
2022-12-01T01:09:45.462Z,0
2022-12-01T01:10:45.711Z,0
2022-12-01T01:11:45.647Z,0
2022-12-01T01:12:45.336Z,0
2022-12-01T01:13:45.377Z,0
2022-12-01T01:14:45.258Z,0
2022-12-01T01:15:45.291Z,0
2022-12-01T01:16:51.391Z,0
2022-12-01T01:17:45.383Z,0
2022-12-01T01:18:45.344Z,0
2022-12-01T01:19:45.287Z,0
2022-12-01T01:20:45.357Z,0
2022-12-01T01:21:45.701Z,0
2022-12-01T01:22:45.378Z,0
2022-12-01T01:23:45.408Z,0
2022-12-01T01:24:45.487Z,0
2022-12-01T01:25:45.701Z,0
2022-12-01T01:26:45.635Z,0
2022-12-01T01:27:45.297Z,0
2022-12-01T01:28:45.352Z,0
2022-12-01T01:29:45.503Z,0
2022-12-01T01:30:45.329Z,0
2022-12-01T01:31:45.839Z,0
2022-12-01T01:32:48.343Z,0
2022-12-01T01:33:45.466Z,0
2022-12-01T01:34:45.269Z,0
2022-12-01T01:35:45.375Z,0
2022-12-01T01:36:45.760Z,0
2022-12-01T01:37:45.385Z,0
2022-12-01T01:38:45.297Z,0
2022-12-01T01:39:45.296Z,0
2022-12-01T01:40:45.641Z,0
2022-12-01T01:41:45.681Z,0
2022-12-01T01:42:45.370Z,0
2022-12-01T01:43:48.325Z,0
2022-12-01T01:44:45.330Z,0
2022-12-01T01:45:45.341Z,0
2022-12-01T01:46:45.703Z,0
2022-12-01T01:47:45.455Z,0
2022-12-01T01:48:45.268Z,0
2022-12-01T01:49:45.533Z,0
2022-12-01T01:50:45.277Z,0
2022-12-01T01:51:45.638Z,0
2022-12-01T01:52:45.503Z,0
2022-12-01T01:53:45.452Z,0
2022-12-01T01:54:48.297Z,0
2022-12-01T01:55:45.642Z,0
2022-12-01T01:56:45.646Z,0
2022-12-01T01:57:45.439Z,0
2022-12-01T01:58:45.370Z,0
2022-12-01T01:59:45.487Z,0
2022-12-01T02:00:45.284Z,0
2022-12-01T02:01:45.787Z,0
2022-12-01T02:02:45.490Z,0
2022-12-01T02:03:45.450Z,0
2022-12-01T02:04:45.396Z,0
2022-12-01T02:05:48.347Z,0
2022-12-01T02:06:45.749Z,0
2022-12-01T02:07:45.650Z,0
2022-12-01T02:08:45.483Z,0
2022-12-01T02:09:45.746Z,0
2022-12-01T02:10:45.646Z,0
2022-12-01T02:11:45.699Z,0
2022-12-01T02:12:45.275Z,0
2022-12-01T02:13:45.269Z,0
2022-12-01T02:14:45.361Z,0
2022-12-01T02:15:45.328Z,0
2022-12-01T02:16:48.765Z,0
2022-12-01T02:17:45.363Z,0
2022-12-01T02:18:45.382Z,0
2022-12-01T02:19:45.274Z,0
2022-12-01T02:20:45.380Z,0
2022-12-01T02:21:45.904Z,0
2022-12-01T02:22:49.382Z,0
2022-12-01T02:23:45.394Z,0
2022-12-01T02:24:45.482Z,0
2022-12-01T02:25:45.711Z,0
2022-12-01T02:26:45.632Z,0
2022-12-01T02:27:48.409Z,0
2022-12-01T02:28:45.356Z,0
2022-12-01T02:29:45.361Z,0
2022-12-01T02:30:45.340Z,0
2022-12-01T02:31:45.630Z,0
2022-12-01T02:32:45.338Z,0
2022-12-01T02:33:45.280Z,0
2022-12-01T02:34:45.276Z,0
2022-12-01T02:35:45.281Z,0
2022-12-01T02:36:45.701Z,0
2022-12-01T02:37:45.356Z,0
2022-12-01T02:38:45.379Z,94.212890625
2022-12-01T02:39:45.279Z,94.62109375
2022-12-01T02:40:45.712Z,94.564453125
2022-12-01T02:41:45.650Z,94.71484375
2022-12-01T02:42:45.477Z,94.6201171875
2022-12-01T02:43:48.264Z,0
2022-12-01T02:44:45.258Z,94.1943359375
2022-12-01T02:45:45.493Z,94.2109375
2022-12-01T02:46:45.768Z,94.109375
2022-12-01T02:47:45.381Z,94.611328125
2022-12-01T02:48:45.315Z,94.0146484375
2022-12-01T02:49:45.414Z,93.9130859375
2022-12-01T02:50:45.401Z,95.041015625
2022-12-01T02:51:45.706Z,0
2022-12-01T02:52:45.343Z,0
2022-12-01T02:53:45.390Z,0
2022-12-01T02:54:45.370Z,0
2022-12-01T02:55:45.704Z,0
2022-12-01T02:56:45.686Z,93.9013671875
2022-12-01T02:57:45.449Z,94.0146484375
2022-12-01T02:58:45.276Z,94.51953125
2022-12-01T02:59:45.379Z,94.7431640625
2022-12-01T03:00:45.385Z,94.7177734375
2022-12-01T03:01:45.502Z,94.6416015625
2022-12-01T03:02:45.332Z,94.2880859375
2022-12-01T03:03:45.370Z,94.0263671875
2022-12-01T03:04:48.412Z,93.974609375
2022-12-01T03:05:45.453Z,93.6943359375
2022-12-01T03:06:45.792Z,93.431640625
2022-12-01T03:07:45.427Z,93.529296875
2022-12-01T03:08:45.374Z,92.64453125
2022-12-01T03:09:45.419Z,93.505859375
2022-12-01T03:10:45.650Z,92.4208984375
2022-12-01T03:11:45.741Z,93.13671875
2022-12-01T03:12:45.384Z,92.490234375
2022-12-01T03:13:45.318Z,93.38671875
2022-12-01T03:14:45.335Z,93.943359375
2022-12-01T03:15:48.474Z,94.2734375
2022-12-01T03:16:45.714Z,94.1318359375
2022-12-01T03:17:45.396Z,93.990234375
2022-12-01T03:18:45.444Z,93.1669921875
2022-12-01T03:19:45.509Z,93.2548828125
2022-12-01T03:20:45.259Z,92.50390625
2022-12-01T03:21:45.638Z,92.8984375
2022-12-01T03:22:45.263Z,93.078125
2022-12-01T03:23:45.281Z,93.5732421875
2022-12-01T03:24:45.406Z,93.390625
2022-12-01T03:25:45.778Z,93.80078125
2022-12-01T03:26:51.333Z,93.6142578125
2022-12-01T03:28:13.579Z,93.474609375
2022-12-01T03:28:45.400Z,93.9677734375
2022-12-01T03:29:45.520Z,94.4443359375
2022-12-01T03:30:45.406Z,94.1435546875
2022-12-01T03:31:45.808Z,93.826171875
2022-12-01T03:32:45.389Z,93.7978515625
2022-12-01T03:33:45.392Z,94.044921875
2022-12-01T03:34:45.358Z,94.1337890625
2022-12-01T03:35:45.264Z,94.2626953125
2022-12-01T03:36:45.711Z,95.009765625
2022-12-01T03:37:48.443Z,0
2022-12-01T03:38:45.368Z,0
2022-12-01T03:39:45.478Z,0
2022-12-01T03:40:45.444Z,0
2022-12-01T03:41:45.641Z,94.4384765625
2022-12-01T03:42:45.277Z,93.857421875
2022-12-01T03:43:45.378Z,93.474609375
2022-12-01T03:44:45.282Z,94.3310546875
2022-12-01T03:45:45.400Z,94.470703125
2022-12-01T03:46:45.671Z,94.3544921875
2022-12-01T03:47:45.275Z,94.2138671875
2022-12-01T03:48:48.397Z,94.2119140625
2022-12-01T03:49:45.412Z,94.224609375
2022-12-01T03:50:45.275Z,94.0458984375
2022-12-01T03:51:45.814Z,94.29296875
2022-12-01T03:52:45.362Z,94.998046875
2022-12-01T03:53:45.360Z,0
2022-12-01T03:54:45.401Z,94.875
2022-12-01T03:55:45.634Z,94.6044921875
2022-12-01T03:56:45.639Z,94.3173828125
2022-12-01T03:57:45.415Z,94.2685546875
2022-12-01T03:58:45.411Z,94.064453125
2022-12-01T03:59:45.325Z,94.3173828125
2022-12-01T04:00:45.441Z,94.2783203125
2022-12-01T04:01:45.735Z,94.361328125
2022-12-01T04:02:45.537Z,94.388671875
2022-12-01T04:03:45.306Z,94.4638671875
2022-12-01T04:04:48.289Z,94.3798828125
2022-12-01T04:05:45.383Z,94.751953125
2022-12-01T04:06:45.735Z,94.935546875
2022-12-01T04:07:45.447Z,94.8330078125
2022-12-01T04:08:45.361Z,0
2022-12-01T04:09:45.267Z,95.046875
2022-12-01T04:10:45.685Z,95.0146484375
2022-12-01T04:11:45.766Z,93.802734375
2022-12-01T04:12:45.276Z,93.611328125
2022-12-01T04:13:45.498Z,93.1083984375
2022-12-01T04:14:45.351Z,93.8271484375
2022-12-01T04:15:48.457Z,94.1435546875
2022-12-01T04:16:45.632Z,94.1923828125
2022-12-01T04:17:45.489Z,93.876953125
2022-12-01T04:18:45.277Z,93.59765625
2022-12-01T04:19:45.411Z,93.6171875
2022-12-01T04:20:45.397Z,93.6806640625
2022-12-01T04:21:45.635Z,93.7841796875
2022-12-01T04:22:45.379Z,93.3642578125
2022-12-01T04:23:45.412Z,93.615234375
2022-12-01T04:24:45.258Z,93.6474609375
2022-12-01T04:25:45.641Z,93.7119140625
2022-12-01T04:26:51.305Z,94.0654296875
2022-12-01T04:27:45.422Z,94.107421875
2022-12-01T04:28:45.305Z,93.7744140625
2022-12-01T04:29:45.260Z,93.9873046875
2022-12-01T04:30:45.273Z,93.7177734375
2022-12-01T04:31:45.687Z,93.2431640625
2022-12-01T04:32:45.366Z,92.9658203125
2022-12-01T04:33:45.479Z,93.048828125
2022-12-01T04:34:45.361Z,93.12109375
2022-12-01T04:35:45.265Z,92.9296875
2022-12-01T04:36:45.706Z,93.4287109375
2022-12-01T04:37:48.294Z,93.1630859375
2022-12-01T04:38:45.438Z,92.9228515625
2022-12-01T04:39:45.263Z,92.794921875
2022-12-01T04:40:45.714Z,92.9638671875
2022-12-01T04:41:45.639Z,92.58203125
2022-12-01T04:42:45.354Z,92.19140625
2022-12-01T04:43:45.368Z,92.25390625
2022-12-01T04:44:45.416Z,92.212890625
2022-12-01T04:45:45.483Z,92.25390625
2022-12-01T04:46:45.747Z,92.4462890625
2022-12-01T04:47:45.417Z,92.2314453125
2022-12-01T04:48:45.432Z,92.2109375
2022-12-01T04:49:45.348Z,92.2412109375
2022-12-01T04:50:45.391Z,92.0830078125
2022-12-01T04:51:45.641Z,92.0361328125
2022-12-01T04:52:45.350Z,91.7099609375
2022-12-01T04:53:48.397Z,91.47265625
2022-12-01T04:54:45.463Z,91.41796875
2022-12-01T04:55:45.718Z,91.80859375
2022-12-01T04:56:45.643Z,91.2021484375
2022-12-01T04:57:45.312Z,91.103515625
2022-12-01T04:58:45.474Z,91.3955078125
2022-12-01T04:59:45.276Z,91.9697265625
2022-12-01T05:00:45.426Z,91.642578125
2022-12-01T05:01:45.434Z,91.3837890625
2022-12-01T05:02:45.371Z,91.306640625
2022-12-01T05:03:45.390Z,91.216796875
2022-12-01T05:04:48.336Z,91.435546875
2022-12-01T05:05:45.271Z,91.5771484375
2022-12-01T05:06:45.711Z,91.7353515625
2022-12-01T05:07:45.390Z,92.26953125
2022-12-01T05:08:45.266Z,91.4013671875
2022-12-01T05:09:45.279Z,90.853515625
2022-12-01T05:10:45.643Z,90.916015625
2022-12-01T05:11:45.704Z,89.8935546875
2022-12-01T05:12:45.503Z,90.0498046875
2022-12-01T05:13:45.339Z,90.212890625
2022-12-01T05:14:45.310Z,90.4716796875
2022-12-01T05:15:48.261Z,90.3935546875
2022-12-01T05:16:45.714Z,90.4111328125
2022-12-01T05:17:45.274Z,89.94921875
2022-12-01T05:18:45.395Z,89.41796875
2022-12-01T05:19:45.467Z,89.59765625
2022-12-01T05:20:45.259Z,89.3447265625
2022-12-01T05:21:45.807Z,89.689453125
2022-12-01T05:23:04.701Z,89.5498046875
2022-12-01T05:23:45.276Z,89.775390625
2022-12-01T05:24:45.413Z,90.41796875
2022-12-01T05:25:45.711Z,89.658203125
2022-12-01T05:26:51.356Z,89.666015625
2022-12-01T05:27:45.385Z,89.326171875
2022-12-01T05:28:45.467Z,89.34765625
2022-12-01T05:29:45.348Z,89.28515625
2022-12-01T05:30:45.277Z,89.203125
2022-12-01T05:31:45.918Z,89.8544921875
2022-12-01T05:32:45.281Z,89.484375
2022-12-01T05:33:45.425Z,89.669921875
2022-12-01T05:34:45.344Z,89.9169921875
2022-12-01T05:35:45.407Z,89.6708984375
2022-12-01T05:36:45.700Z,89.7890625
2022-12-01T05:37:48.383Z,90.1357421875
2022-12-01T05:38:45.510Z,90.337890625
2022-12-01T05:39:45.387Z,91.009765625
2022-12-01T05:40:48.544Z,90.982421875
2022-12-01T05:41:45.631Z,89.3408203125
2022-12-01T05:42:45.361Z,90.228515625
2022-12-01T05:43:45.300Z,91.5107421875
2022-12-01T05:44:45.281Z,91.6484375
2022-12-01T05:45:45.347Z,91.623046875
2022-12-01T05:46:45.638Z,91.6201171875
2022-12-01T05:47:45.363Z,91.9853515625
2022-12-01T05:48:45.313Z,91.5654296875
2022-12-01T05:49:45.355Z,91.451171875
2022-12-01T05:50:45.283Z,91.1708984375
2022-12-01T05:51:45.301Z,91.3046875
2022-12-01T05:52:45.270Z,91.2607421875
2022-12-01T05:53:48.376Z,90.7177734375
2022-12-01T05:54:45.408Z,91.14453125
2022-12-01T05:55:45.371Z,91.7646484375
2022-12-01T05:56:45.710Z,91.94140625
2022-12-01T05:57:45.358Z,91.4052734375
2022-12-01T05:58:45.375Z,91.3544921875
2022-12-01T05:59:45.266Z,91.05859375
2022-12-01T06:00:46.229Z,91.7421875
2022-12-01T06:01:45.786Z,91.8994140625
2022-12-01T06:02:45.356Z,91.6298828125
2022-12-01T06:03:45.277Z,91.56640625
2022-12-01T06:04:48.304Z,91.4599609375
2022-12-01T06:05:45.371Z,91.19921875
2022-12-01T06:06:45.655Z,90.94921875
2022-12-01T06:07:45.377Z,90.955078125
2022-12-01T06:08:45.386Z,90.056640625
2022-12-01T06:09:45.417Z,89.7939453125
2022-12-01T06:10:45.371Z,90.7998046875
2022-12-01T06:11:52.229Z,90.08984375
2022-12-01T06:12:45.351Z,89.439453125
2022-12-01T06:13:45.278Z,89.1904296875
2022-12-01T06:14:45.285Z,89.5146484375
2022-12-01T06:15:48.387Z,89.78125
2022-12-01T06:16:45.885Z,90.056640625
2022-12-01T06:17:45.299Z,90.2880859375
2022-12-01T06:18:45.285Z,90.3984375
2022-12-01T06:19:45.464Z,89.1259765625
2022-12-01T06:20:45.491Z,89.4521484375
2022-12-01T06:21:45.481Z,89.134765625
2022-12-01T06:22:45.280Z,89.2509765625
2022-12-01T06:23:45.402Z,88.9111328125
2022-12-01T06:24:45.473Z,88.9931640625
2022-12-01T06:25:45.460Z,88.6865234375
2022-12-01T06:26:45.641Z,88.830078125
2022-12-01T06:27:45.506Z,89.220703125
2022-12-01T06:28:45.277Z,89.310546875
2022-12-01T06:29:45.377Z,90.0869140625
2022-12-01T06:30:45.421Z,90.4375
2022-12-01T06:31:45.669Z,90.49609375
2022-12-01T06:32:45.279Z,89.6337890625
2022-12-01T06:33:45.385Z,89.1748046875
2022-12-01T06:34:45.455Z,89.736328125
2022-12-01T06:35:45.366Z,89.134765625
2022-12-01T06:36:48.779Z,89.3857421875
2022-12-01T06:37:45.487Z,89.8046875
2022-12-01T06:38:45.412Z,89.1826171875
2022-12-01T06:39:45.414Z,89.6025390625
2022-12-01T06:40:45.431Z,90.0869140625
2022-12-01T06:41:45.634Z,89.3857421875
2022-12-01T06:42:48.289Z,89.68359375
2022-12-01T06:43:45.468Z,89.9990234375
2022-12-01T06:44:45.399Z,89.8095703125
2022-12-01T06:45:45.561Z,89.1220703125
2022-12-01T06:46:45.633Z,89.7275390625
2022-12-01T06:47:45.300Z,89.158203125
2022-12-01T06:48:48.282Z,89.169921875
2022-12-01T06:49:45.436Z,89.49609375
2022-12-01T06:50:45.581Z,89.251953125
2022-12-01T06:51:45.632Z,88.8173828125
2022-12-01T06:52:45.649Z,89.767578125
2022-12-01T06:53:45.281Z,89.8369140625
2022-12-01T06:54:45.411Z,90.513671875
2022-12-01T06:55:45.415Z,90.25
2022-12-01T06:56:45.640Z,90.19140625
2022-12-01T06:57:45.343Z,89.9306640625
2022-12-01T06:58:45.286Z,89.89453125
2022-12-01T06:59:48.712Z,89.681640625
2022-12-01T07:00:50.473Z,89.646484375
2022-12-01T07:01:45.687Z,89.470703125
2022-12-01T07:02:45.480Z,89.3505859375
2022-12-01T07:03:45.263Z,89.3818359375
2022-12-01T07:04:45.257Z,89.185546875
2022-12-01T07:05:45.424Z,88.9638671875
2022-12-01T07:06:45.632Z,89.31640625
2022-12-01T07:07:45.433Z,89.673828125
2022-12-01T07:08:45.270Z,90.1123046875
2022-12-01T07:09:45.331Z,90.0009765625
2022-12-01T07:10:48.297Z,89.431640625
2022-12-01T07:11:45.693Z,88.697265625
2022-12-01T07:12:45.381Z,87.7119140625
2022-12-01T07:13:45.271Z,88.4462890625
2022-12-01T07:14:45.449Z,89.2275390625
2022-12-01T07:15:45.359Z,90.232421875
2022-12-01T07:16:45.712Z,90.0966796875
2022-12-01T07:17:45.267Z,90.060546875
2022-12-01T07:18:45.459Z,89.8408203125
2022-12-01T07:19:45.356Z,89.6259765625
2022-12-01T07:20:45.486Z,89.396484375
2022-12-01T07:21:45.647Z,88.6845703125
2022-12-01T07:22:45.400Z,89.453125
2022-12-01T07:23:45.465Z,89.181640625
2022-12-01T07:24:45.382Z,90.2138671875
2022-12-01T07:25:45.499Z,89.8623046875
2022-12-01T07:26:51.335Z,88.6513671875
2022-12-01T07:27:45.373Z,88.6240234375
2022-12-01T07:28:45.285Z,88.75390625
2022-12-01T07:29:45.384Z,89.0458984375
2022-12-01T07:30:45.554Z,89.423828125
2022-12-01T07:31:45.829Z,88.9375
2022-12-01T07:32:45.286Z,88.9453125
2022-12-01T07:33:45.286Z,88.88671875
2022-12-01T07:34:45.355Z,89.2255859375
2022-12-01T07:35:45.423Z,89.154296875
2022-12-01T07:36:45.643Z,89.1943359375
2022-12-01T07:37:48.309Z,88.943359375
2022-12-01T07:38:45.380Z,88.1396484375
2022-12-01T07:39:45.260Z,87.7998046875
2022-12-01T07:40:45.283Z,88.5703125
2022-12-01T07:41:45.641Z,88.8916015625
2022-12-01T07:42:45.439Z,88.701171875
2022-12-01T07:43:48.250Z,88.8076171875
2022-12-01T07:44:45.483Z,87.5869140625
2022-12-01T07:45:45.458Z,87.12109375
2022-12-01T07:46:45.695Z,87.55078125
2022-12-01T07:47:45.264Z,88.2421875
2022-12-01T07:48:45.263Z,86.6494140625
2022-12-01T07:49:45.384Z,86.689453125
2022-12-01T07:50:45.241Z,86.80859375
2022-12-01T07:51:45.712Z,86.751953125
2022-12-01T07:52:45.281Z,85.478515625
2022-12-01T07:53:45.480Z,85.4736328125
2022-12-01T07:54:48.291Z,85.2421875
2022-12-01T07:55:45.369Z,84.6484375
2022-12-01T07:56:45.716Z,84.3408203125
2022-12-01T07:57:45.351Z,84.8671875
2022-12-01T07:58:45.402Z,85.0771484375
2022-12-01T07:59:45.419Z,85.7490234375
2022-12-01T08:00:45.478Z,85.259765625
2022-12-01T08:01:45.748Z,86.109375
2022-12-01T08:02:45.352Z,86.7109375
2022-12-01T08:03:45.368Z,86.8359375
2022-12-01T08:04:45.265Z,86.3583984375
2022-12-01T08:05:45.290Z,86.5751953125
2022-12-01T08:06:45.922Z,86.4384765625
2022-12-01T08:07:48.131Z,87.1123046875
2022-12-01T08:08:45.442Z,86.5732421875
2022-12-01T08:09:45.357Z,86.65625
2022-12-01T08:10:48.405Z,86.6591796875
2022-12-01T08:11:45.637Z,85.951171875
2022-12-01T08:12:45.458Z,85.95703125
2022-12-01T08:13:45.351Z,84.771484375
2022-12-01T08:14:45.384Z,85.3828125
2022-12-01T08:15:45.485Z,85.0654296875
2022-12-01T08:16:45.632Z,84.81640625
2022-12-01T08:17:45.308Z,84.6015625
2022-12-01T08:18:45.377Z,83.8935546875
2022-12-01T08:19:45.283Z,84.8701171875
2022-12-01T08:20:45.417Z,84.5458984375
2022-12-01T08:21:51.332Z,84.6064453125
2022-12-01T08:22:45.449Z,84.220703125
2022-12-01T08:23:45.425Z,84.712890625
2022-12-01T08:24:45.449Z,84.0830078125
2022-12-01T08:25:45.263Z,84.1728515625
2022-12-01T08:26:45.648Z,83.703125
2022-12-01T08:27:45.281Z,83.43359375
2022-12-01T08:28:45.360Z,84.1220703125
2022-12-01T08:29:45.399Z,84.3056640625
2022-12-01T08:30:45.437Z,84.2236328125
2022-12-01T08:31:45.632Z,84.87109375
2022-12-01T08:32:48.460Z,85.087890625
2022-12-01T08:33:45.418Z,84.3896484375
2022-12-01T08:34:49.368Z,83.091796875
2022-12-01T08:35:45.399Z,83.8759765625
2022-12-01T08:36:45.636Z,83.375
2022-12-01T08:37:45.375Z,83.2060546875
2022-12-01T08:38:45.404Z,83.10546875
2022-12-01T08:39:45.409Z,83.14453125
2022-12-01T08:40:45.453Z,83.3681640625
2022-12-01T08:41:45.714Z,83.3232421875
2022-12-01T08:42:45.350Z,82.46484375
2022-12-01T08:43:59.424Z,82.7841796875
2022-12-01T08:44:45.509Z,82.1650390625
2022-12-01T08:45:45.427Z,82.5029296875
2022-12-01T08:46:45.704Z,82.6953125
2022-12-01T08:47:45.356Z,82.6484375
2022-12-01T08:48:45.464Z,82.19921875
2022-12-01T08:49:45.254Z,80.9208984375
2022-12-01T08:50:45.286Z,81.9716796875
2022-12-01T08:51:45.704Z,82.103515625
2022-12-01T08:52:45.352Z,81.916015625
2022-12-01T08:53:45.869Z,81.5859375
2022-12-01T08:54:48.267Z,82.0087890625
2022-12-01T08:55:45.371Z,81.759765625
2022-12-01T08:56:45.706Z,81.3662109375
2022-12-01T08:57:45.358Z,81.91015625
2022-12-01T08:58:45.253Z,81.306640625
2022-12-01T08:59:45.283Z,81.1982421875
2022-12-01T09:00:48.343Z,80.716796875
2022-12-01T09:01:45.693Z,80.0478515625
2022-12-01T09:02:45.327Z,80.3125
2022-12-01T09:03:45.471Z,80.0068359375
2022-12-01T09:04:45.278Z,80.5341796875
2022-12-01T09:05:45.279Z,80.447265625
2022-12-01T09:06:51.323Z,80.1884765625
2022-12-01T09:07:45.434Z,80.693359375
2022-12-01T09:08:45.264Z,80.908203125
2022-12-01T09:09:45.280Z,80.123046875
2022-12-01T09:10:45.396Z,80.0126953125
2022-12-01T09:11:45.700Z,78.9345703125
2022-12-01T09:12:48.364Z,78.2685546875
2022-12-01T09:13:48.735Z,78.3017578125
2022-12-01T09:14:45.278Z,77.98046875
2022-12-01T09:15:45.529Z,78.966796875
2022-12-01T09:16:45.686Z,78.271484375
2022-12-01T09:17:45.381Z,77.7236328125
2022-12-01T09:18:45.259Z,77.873046875
2022-12-01T09:19:45.358Z,77.8447265625
2022-12-01T09:20:45.399Z,78.705078125
2022-12-01T09:21:45.639Z,78.583984375
2022-12-01T09:22:45.452Z,77.701171875
2022-12-01T09:23:48.377Z,78.6396484375
2022-12-01T09:24:45.386Z,78.44140625
2022-12-01T09:25:45.411Z,78.02734375
2022-12-01T09:26:45.646Z,78.3193359375
2022-12-01T09:27:45.368Z,77.7958984375
2022-12-01T09:28:45.385Z,77.205078125
2022-12-01T09:29:45.362Z,77.103515625
2022-12-01T09:30:45.352Z,76.6318359375
2022-12-01T09:31:45.713Z,76.5908203125
2022-12-01T09:32:45.443Z,76.404296875
2022-12-01T09:33:45.294Z,75.7822265625
2022-12-01T09:34:48.400Z,75.447265625
2022-12-01T09:35:45.463Z,75.212890625
2022-12-01T09:36:45.700Z,74.8173828125
2022-12-01T09:37:45.434Z,75.45703125
2022-12-01T09:38:45.277Z,76.3935546875
2022-12-01T09:39:45.380Z,75.5146484375
2022-12-01T09:40:45.281Z,75.7548828125
2022-12-01T09:41:45.768Z,76.5322265625
2022-12-01T09:42:45.492Z,76.4296875
2022-12-01T09:43:45.439Z,76.1953125
2022-12-01T09:44:45.270Z,75.6982421875
2022-12-01T09:45:45.315Z,76.2724609375
2022-12-01T09:46:45.695Z,76.828125
2022-12-01T09:47:45.351Z,77.404296875
2022-12-01T09:48:45.383Z,76.8603515625
2022-12-01T09:49:45.270Z,76.72265625
2022-12-01T09:50:48.279Z,77.1220703125
2022-12-01T09:51:45.747Z,76.8154296875
2022-12-01T09:52:45.348Z,76.91796875
2022-12-01T09:53:45.427Z,77.3955078125
2022-12-01T09:54:45.405Z,78.1259765625
2022-12-01T09:55:45.264Z,79.376953125
2022-12-01T09:56:45.641Z,79.81640625
2022-12-01T09:57:45.476Z,79.9677734375
2022-12-01T09:58:45.422Z,79.720703125
2022-12-01T09:59:45.267Z,79.3232421875
2022-12-01T10:00:45.414Z,79.38671875
2022-12-01T10:01:48.804Z,80.056640625
2022-12-01T10:02:45.350Z,80.0439453125
2022-12-01T10:03:45.284Z,80.38671875
2022-12-01T10:04:45.263Z,79.9931640625
2022-12-01T10:06:10.196Z,79.2431640625
2022-12-01T10:06:45.708Z,78.974609375
2022-12-01T10:07:45.405Z,79.6318359375
2022-12-01T10:08:45.266Z,78.732421875
2022-12-01T10:09:45.313Z,79.2470703125
2022-12-01T10:10:45.397Z,79.9228515625
2022-12-01T10:11:45.648Z,79.2099609375
2022-12-01T10:12:45.275Z,78.8193359375
2022-12-01T10:13:45.285Z,77.7021484375
2022-12-01T10:14:45.287Z,77.765625
2022-12-01T10:15:45.417Z,78.0126953125
2022-12-01T10:16:45.757Z,77.650390625
2022-12-01T10:17:48.390Z,77.162109375
2022-12-01T10:18:45.428Z,77.0146484375
2022-12-01T10:19:45.351Z,77.8154296875
2022-12-01T10:20:45.277Z,77.0009765625
2022-12-01T10:21:45.713Z,76.666015625
2022-12-01T10:22:45.399Z,76.1513671875
2022-12-01T10:23:45.288Z,74.8212890625
2022-12-01T10:24:45.333Z,74.7841796875
2022-12-01T10:25:45.280Z,75.0107421875
2022-12-01T10:26:45.718Z,75.841796875
2022-12-01T10:27:45.491Z,75.4921875
2022-12-01T10:28:48.284Z,74.501953125
2022-12-01T10:29:47.783Z,73.66015625
2022-12-01T10:30:45.334Z,72.74609375
2022-12-01T10:31:45.713Z,72.0556640625
2022-12-01T10:32:45.276Z,71.0908203125
2022-12-01T10:33:45.280Z,69.9599609375
2022-12-01T10:34:45.365Z,70.361328125
2022-12-01T10:35:45.271Z,69.666015625
2022-12-01T10:36:45.656Z,69.576171875
2022-12-01T10:37:45.401Z,69.1455078125
2022-12-01T10:38:45.380Z,69.1015625
2022-12-01T10:39:45.267Z,69.03515625
2022-12-01T10:40:45.299Z,70.375
2022-12-01T10:41:45.720Z,71.6044921875
2022-12-01T10:42:45.462Z,71.7099609375
2022-12-01T10:43:45.399Z,71.2001953125
2022-12-01T10:44:48.275Z,71.6328125
2022-12-01T10:45:45.575Z,71.8349609375
2022-12-01T10:46:45.747Z,71.0634765625
2022-12-01T10:47:45.422Z,70.8681640625
2022-12-01T10:48:45.276Z,70.37890625
2022-12-01T10:49:45.440Z,71.18359375
2022-12-01T10:50:45.384Z,72.0390625
2022-12-01T10:51:45.747Z,72.396484375
2022-12-01T10:52:45.500Z,72.369140625
2022-12-01T10:53:45.282Z,72.4384765625
2022-12-01T10:54:45.408Z,72.9453125
2022-12-01T10:55:48.386Z,71.9228515625
2022-12-01T10:56:45.649Z,72.2421875
2022-12-01T10:57:45.295Z,71.3701171875
2022-12-01T10:58:45.390Z,72.2509765625
2022-12-01T10:59:45.356Z,73.1435546875
2022-12-01T11:01:09.539Z,72.46484375
2022-12-01T11:01:45.676Z,72.10546875
2022-12-01T11:02:45.562Z,73.234375
2022-12-01T11:03:45.506Z,72.54296875
2022-12-01T11:04:45.678Z,73.4150390625
2022-12-01T11:05:45.384Z,73.7734375
2022-12-01T11:06:51.323Z,73.6357421875
2022-12-01T11:07:45.435Z,74.326171875
2022-12-01T11:08:45.251Z,75.3056640625
2022-12-01T11:09:45.438Z,75.4052734375
2022-12-01T11:10:45.262Z,74.23828125
2022-12-01T11:11:45.688Z,74.4765625
2022-12-01T11:12:45.377Z,74.52734375
2022-12-01T11:13:45.412Z,75.6015625
2022-12-01T11:14:45.487Z,75.5087890625
2022-12-01T11:15:45.478Z,75.5908203125
2022-12-01T11:16:45.719Z,75.76953125
2022-12-01T11:17:48.284Z,75.51953125
2022-12-01T11:18:45.499Z,75.3720703125